sensor_id;sensor_type;location;lat;lon;timestamp;P1;durP1;ratioP1;P2;durP2;ratioP2
15363;SDS011;7781;49.690;6.472;2023-04-10T00:01:17;3.30;;;3.00;;
15363;SDS011;7781;49.690;6.472;2023-04-10T00:03:46;3.87;;;2.97;;
15363;SDS011;7781;49.690;6.472;2023-04-10T00:06:15;4.27;;;3.50;;
15363;SDS011;7781;49.690;6.472;2023-04-10T00:08:44;6.10;;;4.20;;
15363;SDS011;7781;49.690;6.472;2023-04-10T00:11:13;4.27;;;3.30;;
15363;SDS011;7781;49.690;6.472;2023-04-10T00:13:45;4.37;;;3.13;;
15363;SDS011;7781;49.690;6.472;2023-04-10T00:16:14;3.47;;;3.00;;
15363;SDS011;7781;49.690;6.472;2023-04-10T00:18:43;6.03;;;2.90;;
15363;SDS011;7781;49.690;6.472;2023-04-10T00:21:12;3.83;;;2.70;;
15363;SDS011;7781;49.690;6.472;2023-04-10T00:23:41;6.10;;;3.97;;
15363;SDS011;7781;49.690;6.472;2023-04-10T00:26:10;5.67;;;3.70;;
15363;SDS011;7781;49.690;6.472;2023-04-10T00:28:40;5.93;;;4.00;;
15363;SDS011;7781;49.690;6.472;2023-04-10T00:31:10;4.83;;;3.30;;
15363;SDS011;7781;49.690;6.472;2023-04-10T00:33:40;4.03;;;3.37;;
15363;SDS011;7781;49.690;6.472;2023-04-10T00:36:08;5.63;;;3.73;;
15363;SDS011;7781;49.690;6.472;2023-04-10T00:38:38;7.40;;;4.37;;
15363;SDS011;7781;49.690;6.472;2023-04-10T00:41:08;5.30;;;3.37;;
15363;SDS011;7781;49.690;6.472;2023-04-10T00:43:38;4.87;;;3.47;;
15363;SDS011;7781;49.690;6.472;2023-04-10T00:46:06;5.03;;;3.40;;
15363;SDS011;7781;49.690;6.472;2023-04-10T00:48:36;4.90;;;3.43;;
15363;SDS011;7781;49.690;6.472;2023-04-10T00:51:06;9.63;;;3.40;;
15363;SDS011;7781;49.690;6.472;2023-04-10T00:53:34;5.70;;;3.73;;
15363;SDS011;7781;49.690;6.472;2023-04-10T00:56:03;4.37;;;3.30;;
15363;SDS011;7781;49.690;6.472;2023-04-10T00:58:33;7.10;;;3.60;;
15363;SDS011;7781;49.690;6.472;2023-04-10T01:01:05;4.40;;;3.20;;
15363;SDS011;7781;49.690;6.472;2023-04-10T01:03:34;9.07;;;3.93;;
15363;SDS011;7781;49.690;6.472;2023-04-10T01:06:10;4.10;;;3.40;;
15363;SDS011;7781;49.690;6.472;2023-04-10T01:08:52;3.60;;;2.93;;
15363;SDS011;7781;49.690;6.472;2023-04-10T01:11:32;4.73;;;3.53;;
15363;SDS011;7781;49.690;6.472;2023-04-10T01:14:15;9.00;;;3.80;;
15363;SDS011;7781;49.690;6.472;2023-04-10T01:16:52;7.57;;;4.17;;
15363;SDS011;7781;49.690;6.472;2023-04-10T01:19:28;5.30;;;3.47;;
15363;SDS011;7781;49.690;6.472;2023-04-10T01:22:09;4.53;;;3.27;;
15363;SDS011;7781;49.690;6.472;2023-04-10T01:24:49;4.80;;;3.47;;
15363;SDS011;7781;49.690;6.472;2023-04-10T01:27:37;5.53;;;3.23;;
15363;SDS011;7781;49.690;6.472;2023-04-10T01:30:15;5.00;;;3.70;;
15363;SDS011;7781;49.690;6.472;2023-04-10T01:32:48;5.20;;;3.30;;
15363;SDS011;7781;49.690;6.472;2023-04-10T01:35:25;5.00;;;3.57;;
15363;SDS011;7781;49.690;6.472;2023-04-10T01:37:57;4.40;;;3.43;;
15363;SDS011;7781;49.690;6.472;2023-04-10T01:40:29;5.70;;;3.70;;
15363;SDS011;7781;49.690;6.472;2023-04-10T01:42:59;3.40;;;3.00;;
15363;SDS011;7781;49.690;6.472;2023-04-10T01:45:43;3.90;;;3.37;;
15363;SDS011;7781;49.690;6.472;2023-04-10T01:48:16;4.80;;;3.53;;
15363;SDS011;7781;49.690;6.472;2023-04-10T01:50:46;4.90;;;3.70;;
15363;SDS011;7781;49.690;6.472;2023-04-10T01:53:15;4.53;;;3.20;;
15363;SDS011;7781;49.690;6.472;2023-04-10T01:55:47;5.37;;;3.70;;
15363;SDS011;7781;49.690;6.472;2023-04-10T01:58:17;6.80;;;3.93;;
15363;SDS011;7781;49.690;6.472;2023-04-10T02:00:48;4.57;;;3.20;;
15363;SDS011;7781;49.690;6.472;2023-04-10T02:03:18;6.33;;;3.80;;
15363;SDS011;7781;49.690;6.472;2023-04-10T02:05:51;5.20;;;3.97;;
15363;SDS011;7781;49.690;6.472;2023-04-10T02:08:30;5.93;;;3.73;;
15363;SDS011;7781;49.690;6.472;2023-04-10T02:11:07;5.83;;;3.90;;
15363;SDS011;7781;49.690;6.472;2023-04-10T02:13:42;4.50;;;3.27;;
15363;SDS011;7781;49.690;6.472;2023-04-10T02:16:17;7.83;;;4.27;;
15363;SDS011;7781;49.690;6.472;2023-04-10T02:18:47;6.57;;;3.73;;
15363;SDS011;7781;49.690;6.472;2023-04-10T02:21:19;6.10;;;4.10;;
15363;SDS011;7781;49.690;6.472;2023-04-10T02:23:49;3.60;;;3.30;;
15363;SDS011;7781;49.690;6.472;2023-04-10T02:26:18;5.87;;;3.40;;
15363;SDS011;7781;49.690;6.472;2023-04-10T02:28:49;6.10;;;3.57;;
15363;SDS011;7781;49.690;6.472;2023-04-10T02:31:22;6.10;;;3.50;;
15363;SDS011;7781;49.690;6.472;2023-04-10T02:33:53;4.90;;;3.50;;
15363;SDS011;7781;49.690;6.472;2023-04-10T02:36:22;11.60;;;3.67;;
15363;SDS011;7781;49.690;6.472;2023-04-10T02:38:54;4.63;;;3.50;;
15363;SDS011;7781;49.690;6.472;2023-04-10T02:41:24;7.00;;;4.20;;
15363;SDS011;7781;49.690;6.472;2023-04-10T02:43:56;4.33;;;3.67;;
15363;SDS011;7781;49.690;6.472;2023-04-10T02:46:29;6.80;;;3.87;;
15363;SDS011;7781;49.690;6.472;2023-04-10T02:48:58;5.07;;;3.73;;
15363;SDS011;7781;49.690;6.472;2023-04-10T02:51:27;5.00;;;3.80;;
15363;SDS011;7781;49.690;6.472;2023-04-10T02:53:56;6.23;;;3.70;;
15363;SDS011;7781;49.690;6.472;2023-04-10T02:56:29;4.53;;;3.30;;
15363;SDS011;7781;49.690;6.472;2023-04-10T02:59:00;5.10;;;4.00;;
15363;SDS011;7781;49.690;6.472;2023-04-10T03:01:31;4.43;;;3.60;;
15363;SDS011;7781;49.690;6.472;2023-04-10T03:04:01;4.90;;;3.53;;
15363;SDS011;7781;49.690;6.472;2023-04-10T03:06:36;4.80;;;3.77;;
15363;SDS011;7781;49.690;6.472;2023-04-10T03:09:05;4.77;;;3.90;;
15363;SDS011;7781;49.690;6.472;2023-04-10T03:11:36;5.67;;;4.13;;
15363;SDS011;7781;49.690;6.472;2023-04-10T03:14:06;7.17;;;3.57;;
15363;SDS011;7781;49.690;6.472;2023-04-10T03:16:39;6.27;;;3.83;;
15363;SDS011;7781;49.690;6.472;2023-04-10T03:19:08;5.83;;;4.30;;
15363;SDS011;7781;49.690;6.472;2023-04-10T03:21:39;8.00;;;4.30;;
15363;SDS011;7781;49.690;6.472;2023-04-10T03:24:08;5.73;;;3.30;;
15363;SDS011;7781;49.690;6.472;2023-04-10T03:26:41;4.63;;;3.20;;
15363;SDS011;7781;49.690;6.472;2023-04-10T03:29:13;5.70;;;3.50;;
15363;SDS011;7781;49.690;6.472;2023-04-10T03:31:46;5.93;;;3.50;;
15363;SDS011;7781;49.690;6.472;2023-04-10T03:34:15;4.40;;;3.20;;
15363;SDS011;7781;49.690;6.472;2023-04-10T03:36:44;13.63;;;4.10;;
15363;SDS011;7781;49.690;6.472;2023-04-10T03:39:13;5.80;;;3.60;;
15363;SDS011;7781;49.690;6.472;2023-04-10T03:41:43;5.87;;;4.20;;
15363;SDS011;7781;49.690;6.472;2023-04-10T03:44:12;6.40;;;4.13;;
15363;SDS011;7781;49.690;6.472;2023-04-10T03:46:41;6.23;;;3.90;;
15363;SDS011;7781;49.690;6.472;2023-04-10T03:49:15;5.03;;;3.73;;
15363;SDS011;7781;49.690;6.472;2023-04-10T03:51:47;14.47;;;4.00;;
15363;SDS011;7781;49.690;6.472;2023-04-10T03:54:16;4.50;;;3.83;;
15363;SDS011;7781;49.690;6.472;2023-04-10T03:56:47;4.90;;;3.67;;
15363;SDS011;7781;49.690;6.472;2023-04-10T03:59:15;6.17;;;4.33;;
15363;SDS011;7781;49.690;6.472;2023-04-10T04:01:43;6.63;;;3.30;;
15363;SDS011;7781;49.690;6.472;2023-04-10T04:04:14;4.17;;;3.43;;
15363;SDS011;7781;49.690;6.472;2023-04-10T04:06:59;3.93;;;3.10;;
15363;SDS011;7781;49.690;6.472;2023-04-10T04:09:45;5.10;;;3.60;;
15363;SDS011;7781;49.690;6.472;2023-04-10T04:12:19;4.70;;;3.63;;
15363;SDS011;7781;49.690;6.472;2023-04-10T04:15:01;5.73;;;3.77;;
15363;SDS011;7781;49.690;6.472;2023-04-10T04:17:45;6.63;;;4.10;;
15363;SDS011;7781;49.690;6.472;2023-04-10T04:20:35;3.87;;;2.90;;
15363;SDS011;7781;49.690;6.472;2023-04-10T04:23:14;4.23;;;3.47;;
15363;SDS011;7781;49.690;6.472;2023-04-10T04:26:02;4.53;;;3.40;;
15363;SDS011;7781;49.690;6.472;2023-04-10T04:28:59;4.50;;;3.10;;
15363;SDS011;7781;49.690;6.472;2023-04-10T04:31:46;4.43;;;3.60;;
15363;SDS011;7781;49.690;6.472;2023-04-10T04:34:33;5.00;;;3.60;;
15363;SDS011;7781;49.690;6.472;2023-04-10T04:37:10;5.07;;;3.40;;
15363;SDS011;7781;49.690;6.472;2023-04-10T04:39:59;5.50;;;3.70;;
15363;SDS011;7781;49.690;6.472;2023-04-10T04:42:35;5.67;;;4.20;;
15363;SDS011;7781;49.690;6.472;2023-04-10T04:45:25;4.43;;;3.07;;
15363;SDS011;7781;49.690;6.472;2023-04-10T04:48:11;4.37;;;3.07;;
15363;SDS011;7781;49.690;6.472;2023-04-10T04:50:54;5.50;;;3.30;;
15363;SDS011;7781;49.690;6.472;2023-04-10T04:53:41;6.20;;;4.13;;
15363;SDS011;7781;49.690;6.472;2023-04-10T04:56:30;5.03;;;3.50;;
15363;SDS011;7781;49.690;6.472;2023-04-10T04:59:13;8.37;;;3.53;;
15363;SDS011;7781;49.690;6.472;2023-04-10T05:02:10;5.63;;;3.20;;
15363;SDS011;7781;49.690;6.472;2023-04-10T05:04:57;5.07;;;3.90;;
15363;SDS011;7781;49.690;6.472;2023-04-10T05:07:56;4.47;;;3.40;;
15363;SDS011;7781;49.690;6.472;2023-04-10T05:10:43;5.93;;;3.53;;
15363;SDS011;7781;49.690;6.472;2023-04-10T05:13:20;5.03;;;3.57;;
15363;SDS011;7781;49.690;6.472;2023-04-10T05:16:07;5.13;;;3.50;;
15363;SDS011;7781;49.690;6.472;2023-04-10T05:18:51;5.13;;;3.60;;
15363;SDS011;7781;49.690;6.472;2023-04-10T05:21:42;5.33;;;3.90;;
15363;SDS011;7781;49.690;6.472;2023-04-10T05:24:45;5.40;;;3.77;;
15363;SDS011;7781;49.690;6.472;2023-04-10T05:27:21;4.70;;;3.60;;
15363;SDS011;7781;49.690;6.472;2023-04-10T05:30:10;4.47;;;3.53;;
15363;SDS011;7781;49.690;6.472;2023-04-10T05:32:57;4.27;;;3.53;;
15363;SDS011;7781;49.690;6.472;2023-04-10T05:35:41;6.10;;;4.17;;
15363;SDS011;7781;49.690;6.472;2023-04-10T05:38:28;6.10;;;4.07;;
15363;SDS011;7781;49.690;6.472;2023-04-10T05:41:36;7.10;;;4.57;;
15363;SDS011;7781;49.690;6.472;2023-04-10T05:44:23;7.27;;;4.20;;
15363;SDS011;7781;49.690;6.472;2023-04-10T05:47:02;6.17;;;4.00;;
15363;SDS011;7781;49.690;6.472;2023-04-10T05:49:37;9.73;;;4.20;;
15363;SDS011;7781;49.690;6.472;2023-04-10T05:52:27;6.37;;;4.23;;
15363;SDS011;7781;49.690;6.472;2023-04-10T05:55:01;5.90;;;4.40;;
15363;SDS011;7781;49.690;6.472;2023-04-10T05:57:48;7.20;;;4.60;;
15363;SDS011;7781;49.690;6.472;2023-04-10T06:00:30;5.80;;;4.23;;
15363;SDS011;7781;49.690;6.472;2023-04-10T06:03:17;5.57;;;4.00;;
15363;SDS011;7781;49.690;6.472;2023-04-10T06:05:54;5.67;;;4.73;;
15363;SDS011;7781;49.690;6.472;2023-04-10T06:08:25;8.23;;;5.10;;
15363;SDS011;7781;49.690;6.472;2023-04-10T06:10:54;8.50;;;4.90;;
15363;SDS011;7781;49.690;6.472;2023-04-10T06:13:23;9.23;;;5.40;;
15363;SDS011;7781;49.690;6.472;2023-04-10T06:15:58;10.10;;;5.60;;
15363;SDS011;7781;49.690;6.472;2023-04-10T06:18:29;7.97;;;5.00;;
15363;SDS011;7781;49.690;6.472;2023-04-10T06:20:58;7.33;;;5.20;;
15363;SDS011;7781;49.690;6.472;2023-04-10T06:23:27;8.07;;;5.80;;
15363;SDS011;7781;49.690;6.472;2023-04-10T06:25:57;12.33;;;5.93;;
15363;SDS011;7781;49.690;6.472;2023-04-10T06:28:28;22.67;;;5.70;;
15363;SDS011;7781;49.690;6.472;2023-04-10T06:31:04;8.60;;;5.33;;
15363;SDS011;7781;49.690;6.472;2023-04-10T06:33:36;7.13;;;4.93;;
15363;SDS011;7781;49.690;6.472;2023-04-10T06:36:07;6.97;;;5.20;;
15363;SDS011;7781;49.690;6.472;2023-04-10T06:38:59;7.90;;;4.80;;
15363;SDS011;7781;49.690;6.472;2023-04-10T06:41:29;8.67;;;4.93;;
15363;SDS011;7781;49.690;6.472;2023-04-10T06:44:10;6.93;;;5.13;;
15363;SDS011;7781;49.690;6.472;2023-04-10T06:46:44;7.90;;;5.07;;
15363;SDS011;7781;49.690;6.472;2023-04-10T06:49:12;7.17;;;5.20;;
15363;SDS011;7781;49.690;6.472;2023-04-10T06:51:41;6.90;;;4.50;;
15363;SDS011;7781;49.690;6.472;2023-04-10T06:54:11;7.30;;;5.40;;
15363;SDS011;7781;49.690;6.472;2023-04-10T06:56:40;8.33;;;4.93;;
15363;SDS011;7781;49.690;6.472;2023-04-10T06:59:09;6.07;;;4.60;;
15363;SDS011;7781;49.690;6.472;2023-04-10T07:01:38;11.07;;;5.43;;
15363;SDS011;7781;49.690;6.472;2023-04-10T07:04:09;9.33;;;5.30;;
15363;SDS011;7781;49.690;6.472;2023-04-10T07:06:38;6.30;;;4.63;;
15363;SDS011;7781;49.690;6.472;2023-04-10T07:09:07;5.10;;;4.47;;
15363;SDS011;7781;49.690;6.472;2023-04-10T07:11:36;6.53;;;4.80;;
15363;SDS011;7781;49.690;6.472;2023-04-10T07:14:06;6.40;;;5.03;;
15363;SDS011;7781;49.690;6.472;2023-04-10T07:16:35;7.43;;;5.33;;
15363;SDS011;7781;49.690;6.472;2023-04-10T07:19:06;8.00;;;4.80;;
15363;SDS011;7781;49.690;6.472;2023-04-10T07:21:37;7.50;;;5.67;;
15363;SDS011;7781;49.690;6.472;2023-04-10T07:24:06;7.40;;;5.70;;
15363;SDS011;7781;49.690;6.472;2023-04-10T07:26:35;8.40;;;6.03;;
15363;SDS011;7781;49.690;6.472;2023-04-10T07:29:03;6.43;;;5.00;;
15363;SDS011;7781;49.690;6.472;2023-04-10T07:31:32;6.90;;;5.13;;
15363;SDS011;7781;49.690;6.472;2023-04-10T07:34:03;5.83;;;4.70;;
15363;SDS011;7781;49.690;6.472;2023-04-10T07:36:34;6.73;;;4.93;;
15363;SDS011;7781;49.690;6.472;2023-04-10T07:39:03;7.30;;;4.80;;
15363;SDS011;7781;49.690;6.472;2023-04-10T07:41:32;6.93;;;4.93;;
15363;SDS011;7781;49.690;6.472;2023-04-10T07:44:02;6.23;;;5.00;;
15363;SDS011;7781;49.690;6.472;2023-04-10T07:46:32;5.70;;;4.63;;
15363;SDS011;7781;49.690;6.472;2023-04-10T07:49:01;6.07;;;4.37;;
15363;SDS011;7781;49.690;6.472;2023-04-10T07:51:32;6.80;;;5.20;;
15363;SDS011;7781;49.690;6.472;2023-04-10T07:54:01;7.43;;;5.80;;
15363;SDS011;7781;49.690;6.472;2023-04-10T07:56:34;5.93;;;4.43;;
15363;SDS011;7781;49.690;6.472;2023-04-10T07:59:03;6.70;;;4.90;;
15363;SDS011;7781;49.690;6.472;2023-04-10T08:01:32;6.27;;;4.37;;
15363;SDS011;7781;49.690;6.472;2023-04-10T08:04:01;7.23;;;5.40;;
15363;SDS011;7781;49.690;6.472;2023-04-10T08:06:32;8.90;;;5.60;;
15363;SDS011;7781;49.690;6.472;2023-04-10T08:09:01;5.80;;;4.73;;
15363;SDS011;7781;49.690;6.472;2023-04-10T08:11:34;6.00;;;4.93;;
15363;SDS011;7781;49.690;6.472;2023-04-10T08:14:04;7.60;;;5.20;;
15363;SDS011;7781;49.690;6.472;2023-04-10T08:16:34;6.07;;;4.80;;
15363;SDS011;7781;49.690;6.472;2023-04-10T08:19:04;6.50;;;4.30;;
15363;SDS011;7781;49.690;6.472;2023-04-10T08:21:33;6.33;;;4.77;;
15363;SDS011;7781;49.690;6.472;2023-04-10T08:24:03;6.87;;;5.00;;
15363;SDS011;7781;49.690;6.472;2023-04-10T08:26:34;6.10;;;4.57;;
15363;SDS011;7781;49.690;6.472;2023-04-10T08:29:04;7.80;;;5.07;;
15363;SDS011;7781;49.690;6.472;2023-04-10T08:31:34;6.30;;;5.17;;
15363;SDS011;7781;49.690;6.472;2023-04-10T08:34:03;6.93;;;4.60;;
15363;SDS011;7781;49.690;6.472;2023-04-10T08:36:34;8.27;;;5.17;;
15363;SDS011;7781;49.690;6.472;2023-04-10T08:39:04;5.50;;;4.40;;
15363;SDS011;7781;49.690;6.472;2023-04-10T08:41:35;8.80;;;4.80;;
15363;SDS011;7781;49.690;6.472;2023-04-10T08:44:04;4.70;;;3.80;;
15363;SDS011;7781;49.690;6.472;2023-04-10T08:46:34;5.83;;;4.33;;
15363;SDS011;7781;49.690;6.472;2023-04-10T08:49:09;5.23;;;4.00;;
15363;SDS011;7781;49.690;6.472;2023-04-10T08:51:45;4.43;;;3.40;;
15363;SDS011;7781;49.690;6.472;2023-04-10T08:54:23;4.67;;;3.60;;
15363;SDS011;7781;49.690;6.472;2023-04-10T08:56:58;5.00;;;4.00;;
15363;SDS011;7781;49.690;6.472;2023-04-10T08:59:28;5.87;;;3.53;;
15363;SDS011;7781;49.690;6.472;2023-04-10T09:01:57;3.77;;;3.37;;
15363;SDS011;7781;49.690;6.472;2023-04-10T09:04:26;8.47;;;4.00;;
15363;SDS011;7781;49.690;6.472;2023-04-10T09:06:55;5.60;;;4.13;;
15363;SDS011;7781;49.690;6.472;2023-04-10T09:09:24;3.80;;;3.30;;
15363;SDS011;7781;49.690;6.472;2023-04-10T09:11:56;3.33;;;3.03;;
15363;SDS011;7781;49.690;6.472;2023-04-10T09:14:30;5.17;;;3.27;;
15363;SDS011;7781;49.690;6.472;2023-04-10T09:17:18;4.60;;;3.03;;
15363;SDS011;7781;49.690;6.472;2023-04-10T09:19:47;5.07;;;3.70;;
15363;SDS011;7781;49.690;6.472;2023-04-10T09:22:18;2.93;;;2.37;;
15363;SDS011;7781;49.690;6.472;2023-04-10T09:24:57;2.83;;;2.57;;
15363;SDS011;7781;49.690;6.472;2023-04-10T09:27:30;6.63;;;3.03;;
15363;SDS011;7781;49.690;6.472;2023-04-10T09:30:01;3.00;;;2.47;;
15363;SDS011;7781;49.690;6.472;2023-04-10T09:32:35;4.37;;;3.00;;
15363;SDS011;7781;49.690;6.472;2023-04-10T09:35:05;3.10;;;2.80;;
15363;SDS011;7781;49.690;6.472;2023-04-10T09:37:35;2.47;;;2.20;;
15363;SDS011;7781;49.690;6.472;2023-04-10T09:40:18;3.07;;;2.47;;
15363;SDS011;7781;49.690;6.472;2023-04-10T09:42:50;4.20;;;2.70;;
15363;SDS011;7781;49.690;6.472;2023-04-10T09:48:24;4.23;;;2.67;;
15363;SDS011;7781;49.690;6.472;2023-04-10T09:50:53;4.23;;;3.03;;
15363;SDS011;7781;49.690;6.472;2023-04-10T09:53:23;3.10;;;2.60;;
15363;SDS011;7781;49.690;6.472;2023-04-10T09:55:52;3.57;;;3.03;;
15363;SDS011;7781;49.690;6.472;2023-04-10T09:58:24;3.70;;;2.63;;
15363;SDS011;7781;49.690;6.472;2023-04-10T10:00:54;3.33;;;2.70;;
15363;SDS011;7781;49.690;6.472;2023-04-10T10:03:29;4.40;;;3.13;;
15363;SDS011;7781;49.690;6.472;2023-04-10T10:06:01;3.10;;;2.67;;
15363;SDS011;7781;49.690;6.472;2023-04-10T10:08:34;3.20;;;2.43;;
15363;SDS011;7781;49.690;6.472;2023-04-10T10:11:04;3.27;;;2.80;;
15363;SDS011;7781;49.690;6.472;2023-04-10T10:13:42;5.03;;;3.10;;
15363;SDS011;7781;49.690;6.472;2023-04-10T10:16:18;3.73;;;3.10;;
15363;SDS011;7781;49.690;6.472;2023-04-10T10:18:53;4.97;;;3.43;;
15363;SDS011;7781;49.690;6.472;2023-04-10T10:21:28;3.53;;;3.00;;
15363;SDS011;7781;49.690;6.472;2023-04-10T10:24:01;3.97;;;2.80;;
15363;SDS011;7781;49.690;6.472;2023-04-10T10:26:34;4.97;;;2.77;;
15363;SDS011;7781;49.690;6.472;2023-04-10T10:29:07;4.20;;;3.00;;
15363;SDS011;7781;49.690;6.472;2023-04-10T10:31:36;4.93;;;3.43;;
15363;SDS011;7781;49.690;6.472;2023-04-10T10:34:05;4.83;;;2.63;;
15363;SDS011;7781;49.690;6.472;2023-04-10T10:36:37;3.80;;;2.80;;
15363;SDS011;7781;49.690;6.472;2023-04-10T10:39:12;4.13;;;2.83;;
15363;SDS011;7781;49.690;6.472;2023-04-10T10:41:52;3.80;;;2.40;;
15363;SDS011;7781;49.690;6.472;2023-04-10T10:44:32;3.30;;;2.80;;
15363;SDS011;7781;49.690;6.472;2023-04-10T10:47:09;3.63;;;2.90;;
15363;SDS011;7781;49.690;6.472;2023-04-10T10:49:50;4.20;;;3.00;;
15363;SDS011;7781;49.690;6.472;2023-04-10T10:52:35;4.93;;;3.10;;
15363;SDS011;7781;49.690;6.472;2023-04-10T10:55:27;5.93;;;2.77;;
15363;SDS011;7781;49.690;6.472;2023-04-10T10:58:04;3.60;;;2.90;;
15363;SDS011;7781;49.690;6.472;2023-04-10T11:03:37;4.00;;;2.60;;
15363;SDS011;7781;49.690;6.472;2023-04-10T11:06:13;3.40;;;2.87;;
15363;SDS011;7781;49.690;6.472;2023-04-10T11:08:46;4.30;;;2.97;;
15363;SDS011;7781;49.690;6.472;2023-04-10T11:11:16;5.23;;;3.00;;
15363;SDS011;7781;49.690;6.472;2023-04-10T11:16:46;3.20;;;2.90;;
15363;SDS011;7781;49.690;6.472;2023-04-10T11:19:17;3.80;;;3.00;;
15363;SDS011;7781;49.690;6.472;2023-04-10T11:21:59;3.30;;;2.80;;
15363;SDS011;7781;49.690;6.472;2023-04-10T11:24:52;3.13;;;2.83;;
15363;SDS011;7781;49.690;6.472;2023-04-10T11:27:37;3.60;;;2.70;;
15363;SDS011;7781;49.690;6.472;2023-04-10T11:30:26;3.70;;;2.70;;
15363;SDS011;7781;49.690;6.472;2023-04-10T11:33:00;4.93;;;3.17;;
15363;SDS011;7781;49.690;6.472;2023-04-10T11:35:33;5.00;;;3.40;;
15363;SDS011;7781;49.690;6.472;2023-04-10T11:38:15;3.37;;;3.07;;
15363;SDS011;7781;49.690;6.472;2023-04-10T11:40:54;3.90;;;2.97;;
15363;SDS011;7781;49.690;6.472;2023-04-10T11:43:24;3.70;;;3.07;;
15363;SDS011;7781;49.690;6.472;2023-04-10T11:46:01;3.73;;;3.20;;
15363;SDS011;7781;49.690;6.472;2023-04-10T11:48:35;2.70;;;2.50;;
15363;SDS011;7781;49.690;6.472;2023-04-10T11:51:13;3.20;;;2.70;;
15363;SDS011;7781;49.690;6.472;2023-04-10T11:53:42;4.87;;;2.77;;
15363;SDS011;7781;49.690;6.472;2023-04-10T11:56:15;4.40;;;3.17;;
15363;SDS011;7781;49.690;6.472;2023-04-10T11:58:50;3.93;;;2.97;;
15363;SDS011;7781;49.690;6.472;2023-04-10T12:01:21;3.33;;;2.80;;
15363;SDS011;7781;49.690;6.472;2023-04-10T12:03:51;4.63;;;3.50;;
15363;SDS011;7781;49.690;6.472;2023-04-10T12:06:23;3.97;;;2.97;;
15363;SDS011;7781;49.690;6.472;2023-04-10T12:08:54;4.97;;;3.33;;
15363;SDS011;7781;49.690;6.472;2023-04-10T12:11:23;4.60;;;3.63;;
15363;SDS011;7781;49.690;6.472;2023-04-10T12:13:55;5.50;;;3.30;;
15363;SDS011;7781;49.690;6.472;2023-04-10T12:16:25;5.00;;;3.70;;
15363;SDS011;7781;49.690;6.472;2023-04-10T12:18:54;4.23;;;3.77;;
15363;SDS011;7781;49.690;6.472;2023-04-10T12:21:28;3.73;;;3.30;;
15363;SDS011;7781;49.690;6.472;2023-04-10T12:23:57;3.47;;;2.77;;
15363;SDS011;7781;49.690;6.472;2023-04-10T12:26:26;3.93;;;2.93;;
15363;SDS011;7781;49.690;6.472;2023-04-10T12:28:56;4.80;;;2.80;;
15363;SDS011;7781;49.690;6.472;2023-04-10T12:31:25;4.00;;;2.97;;
15363;SDS011;7781;49.690;6.472;2023-04-10T12:33:58;2.67;;;2.43;;
15363;SDS011;7781;49.690;6.472;2023-04-10T12:36:30;3.20;;;2.40;;
15363;SDS011;7781;49.690;6.472;2023-04-10T12:39:02;2.60;;;2.40;;
15363;SDS011;7781;49.690;6.472;2023-04-10T12:41:32;3.20;;;2.60;;
15363;SDS011;7781;49.690;6.472;2023-04-10T12:44:08;3.77;;;2.50;;
15363;SDS011;7781;49.690;6.472;2023-04-10T12:46:39;2.87;;;2.53;;
15363;SDS011;7781;49.690;6.472;2023-04-10T12:49:11;2.97;;;2.50;;
15363;SDS011;7781;49.690;6.472;2023-04-10T12:51:45;3.83;;;2.40;;
15363;SDS011;7781;49.690;6.472;2023-04-10T12:54:27;2.73;;;2.20;;
15363;SDS011;7781;49.690;6.472;2023-04-10T12:57:24;4.63;;;2.80;;
15363;SDS011;7781;49.690;6.472;2023-04-10T12:59:54;3.13;;;2.30;;
15363;SDS011;7781;49.690;6.472;2023-04-10T13:02:24;2.33;;;2.10;;
15363;SDS011;7781;49.690;6.472;2023-04-10T13:04:55;2.70;;;2.33;;
15363;SDS011;7781;49.690;6.472;2023-04-10T13:07:26;2.97;;;2.60;;
15363;SDS011;7781;49.690;6.472;2023-04-10T13:09:55;2.70;;;2.50;;
15363;SDS011;7781;49.690;6.472;2023-04-10T13:12:24;3.03;;;2.23;;
15363;SDS011;7781;49.690;6.472;2023-04-10T13:14:55;3.10;;;2.33;;
15363;SDS011;7781;49.690;6.472;2023-04-10T13:17:26;2.90;;;2.70;;
15363;SDS011;7781;49.690;6.472;2023-04-10T13:19:55;2.70;;;2.37;;
15363;SDS011;7781;49.690;6.472;2023-04-10T13:22:28;2.90;;;2.50;;
15363;SDS011;7781;49.690;6.472;2023-04-10T13:24:57;3.37;;;2.37;;
15363;SDS011;7781;49.690;6.472;2023-04-10T13:27:25;3.67;;;2.27;;
15363;SDS011;7781;49.690;6.472;2023-04-10T13:29:54;4.40;;;2.70;;
15363;SDS011;7781;49.690;6.472;2023-04-10T13:32:24;2.60;;;2.40;;
15363;SDS011;7781;49.690;6.472;2023-04-10T13:34:54;3.13;;;2.40;;
15363;SDS011;7781;49.690;6.472;2023-04-10T13:37:23;3.40;;;2.40;;
15363;SDS011;7781;49.690;6.472;2023-04-10T13:39:53;2.67;;;2.13;;
15363;SDS011;7781;49.690;6.472;2023-04-10T13:42:23;2.53;;;2.30;;
15363;SDS011;7781;49.690;6.472;2023-04-10T13:44:53;3.37;;;2.60;;
15363;SDS011;7781;49.690;6.472;2023-04-10T13:47:21;3.93;;;2.80;;
15363;SDS011;7781;49.690;6.472;2023-04-10T13:49:50;2.93;;;2.43;;
15363;SDS011;7781;49.690;6.472;2023-04-10T13:52:19;2.50;;;2.23;;
15363;SDS011;7781;49.690;6.472;2023-04-10T13:54:49;4.37;;;2.20;;
15363;SDS011;7781;49.690;6.472;2023-04-10T13:57:19;2.77;;;2.20;;
15363;SDS011;7781;49.690;6.472;2023-04-10T13:59:57;2.30;;;2.10;;
15363;SDS011;7781;49.690;6.472;2023-04-10T14:02:26;2.30;;;2.00;;
15363;SDS011;7781;49.690;6.472;2023-04-10T14:04:57;1.90;;;1.80;;
15363;SDS011;7781;49.690;6.472;2023-04-10T14:07:29;2.50;;;2.30;;
15363;SDS011;7781;49.690;6.472;2023-04-10T14:09:58;1.97;;;1.77;;
15363;SDS011;7781;49.690;6.472;2023-04-10T14:12:29;2.00;;;1.83;;
15363;SDS011;7781;49.690;6.472;2023-04-10T14:15:00;2.37;;;1.80;;
15363;SDS011;7781;49.690;6.472;2023-04-10T14:17:30;3.07;;;2.23;;
15363;SDS011;7781;49.690;6.472;2023-04-10T14:20:00;3.50;;;2.20;;
15363;SDS011;7781;49.690;6.472;2023-04-10T14:22:29;2.13;;;1.93;;
15363;SDS011;7781;49.690;6.472;2023-04-10T14:24:58;2.90;;;2.30;;
15363;SDS011;7781;49.690;6.472;2023-04-10T14:27:42;3.50;;;2.10;;
15363;SDS011;7781;49.690;6.472;2023-04-10T14:30:11;2.43;;;1.90;;
15363;SDS011;7781;49.690;6.472;2023-04-10T14:32:40;2.53;;;2.00;;
15363;SDS011;7781;49.690;6.472;2023-04-10T14:35:12;2.50;;;1.90;;
15363;SDS011;7781;49.690;6.472;2023-04-10T14:37:41;3.10;;;2.23;;
15363;SDS011;7781;49.690;6.472;2023-04-10T14:40:11;2.63;;;2.00;;
15363;SDS011;7781;49.690;6.472;2023-04-10T14:42:41;2.37;;;2.17;;
15363;SDS011;7781;49.690;6.472;2023-04-10T14:45:12;3.23;;;2.60;;
15363;SDS011;7781;49.690;6.472;2023-04-10T14:47:40;5.37;;;2.50;;
15363;SDS011;7781;49.690;6.472;2023-04-10T14:50:10;2.60;;;2.13;;
15363;SDS011;7781;49.690;6.472;2023-04-10T14:52:39;2.00;;;1.90;;
15363;SDS011;7781;49.690;6.472;2023-04-10T14:55:08;2.77;;;2.13;;
15363;SDS011;7781;49.690;6.472;2023-04-10T14:57:42;2.43;;;2.00;;
15363;SDS011;7781;49.690;6.472;2023-04-10T15:00:11;2.50;;;2.07;;
15363;SDS011;7781;49.690;6.472;2023-04-10T15:02:40;3.20;;;2.77;;
15363;SDS011;7781;49.690;6.472;2023-04-10T15:05:11;3.67;;;2.27;;
15363;SDS011;7781;49.690;6.472;2023-04-10T15:07:40;2.83;;;2.50;;
15363;SDS011;7781;49.690;6.472;2023-04-10T15:10:10;3.30;;;2.33;;
15363;SDS011;7781;49.690;6.472;2023-04-10T15:12:38;2.40;;;2.20;;
15363;SDS011;7781;49.690;6.472;2023-04-10T15:15:10;3.17;;;2.50;;
15363;SDS011;7781;49.690;6.472;2023-04-10T15:17:38;3.00;;;2.17;;
15363;SDS011;7781;49.690;6.472;2023-04-10T15:20:08;2.87;;;2.30;;
15363;SDS011;7781;49.690;6.472;2023-04-10T15:22:38;2.37;;;2.17;;
15363;SDS011;7781;49.690;6.472;2023-04-10T15:25:08;2.30;;;2.10;;
15363;SDS011;7781;49.690;6.472;2023-04-10T15:27:38;3.10;;;2.30;;
15363;SDS011;7781;49.690;6.472;2023-04-10T15:30:07;2.53;;;2.33;;
15363;SDS011;7781;49.690;6.472;2023-04-10T15:32:39;2.50;;;2.20;;
15363;SDS011;7781;49.690;6.472;2023-04-10T15:35:08;2.90;;;2.13;;
15363;SDS011;7781;49.690;6.472;2023-04-10T15:37:37;2.70;;;2.50;;
15363;SDS011;7781;49.690;6.472;2023-04-10T15:40:08;5.20;;;2.47;;
15363;SDS011;7781;49.690;6.472;2023-04-10T15:42:37;2.97;;;2.20;;
15363;SDS011;7781;49.690;6.472;2023-04-10T15:45:06;4.77;;;2.20;;
15363;SDS011;7781;49.690;6.472;2023-04-10T15:47:37;7.97;;;2.47;;